sensor_id;sensor_type;location;lat;lon;timestamp;pressure;altitude;pressure_sealevel;temperature;humidity
16190;BME280;41754;51.498;7.540;2023-01-25T00:00:46;102379.66;;;2.62;58.95
16190;BME280;41754;51.498;7.540;2023-01-25T00:03:14;102387.78;;;2.55;59.27
16190;BME280;41754;51.498;7.540;2023-01-25T00:05:41;102385.13;;;2.75;58.86
16190;BME280;41754;51.498;7.540;2023-01-25T00:08:09;102387.16;;;2.46;59.55
16190;BME280;41754;51.498;7.540;2023-01-25T00:10:37;102383.81;;;2.57;58.79
16190;BME280;41754;51.498;7.540;2023-01-25T00:13:06;102383.13;;;2.29;59.19
16190;BME280;41754;51.498;7.540;2023-01-25T00:15:34;102382.44;;;2.07;60.24
16190;BME280;41754;51.498;7.540;2023-01-25T00:18:02;102379.88;;;1.92;60.61
16190;BME280;41754;51.498;7.540;2023-01-25T00:20:30;102382.78;;;1.84;60.95
16190;BME280;41754;51.498;7.540;2023-01-25T00:22:58;102372.03;;;2.11;60.66
16190;BME280;41754;51.498;7.540;2023-01-25T00:25:25;102362.59;;;2.07;60.06
16190;BME280;41754;51.498;7.540;2023-01-25T00:27:53;102363.47;;;2.14;60.67
16190;BME280;41754;51.498;7.540;2023-01-25T00:30:22;102360.56;;;2.28;60.18
16190;BME280;41754;51.498;7.540;2023-01-25T00:32:56;102368.28;;;2.25;60.11
16190;BME280;41754;51.498;7.540;2023-01-25T00:35:29;102353.91;;;2.44;59.77
16190;BME280;41754;51.498;7.540;2023-01-25T00:38:00;102354.00;;;1.96;61.22
16190;BME280;41754;51.498;7.540;2023-01-25T00:40:28;102355.00;;;1.95;60.62
16190;BME280;41754;51.498;7.540;2023-01-25T00:42:57;102355.31;;;2.14;61.13
16190;BME280;41754;51.498;7.540;2023-01-25T00:45:28;102344.88;;;2.17;60.57
16190;BME280;41754;51.498;7.540;2023-01-25T00:47:55;102351.69;;;1.52;62.70
16190;BME280;41754;51.498;7.540;2023-01-25T00:50:23;102343.06;;;1.83;61.73
16190;BME280;41754;51.498;7.540;2023-01-25T00:52:51;102336.44;;;1.92;60.95
16190;BME280;41754;51.498;7.540;2023-01-25T00:55:19;102337.59;;;1.70;60.96
16190;BME280;41754;51.498;7.540;2023-01-25T00:57:47;102337.72;;;1.96;61.14
16190;BME280;41754;51.498;7.540;2023-01-25T01:00:16;102332.28;;;2.03;60.59
16190;BME280;41754;51.498;7.540;2023-01-25T01:02:46;102331.38;;;1.76;60.91
16190;BME280;41754;51.498;7.540;2023-01-25T01:05:14;102331.53;;;1.68;61.57
16190;BME280;41754;51.498;7.540;2023-01-25T01:07:42;102333.31;;;1.48;62.31
16190;BME280;41754;51.498;7.540;2023-01-25T01:10:11;102326.00;;;1.89;61.63
16190;BME280;41754;51.498;7.540;2023-01-25T01:12:39;102328.31;;;2.06;60.84
16190;BME280;41754;51.498;7.540;2023-01-25T01:15:08;102328.81;;;2.42;59.83
16190;BME280;41754;51.498;7.540;2023-01-25T01:17:36;102328.69;;;1.96;60.35
16190;BME280;41754;51.498;7.540;2023-01-25T01:20:05;102330.78;;;1.87;60.98
16190;BME280;41754;51.498;7.540;2023-01-25T01:22:33;102329.06;;;1.80;61.38
16190;BME280;41754;51.498;7.540;2023-01-25T01:25:01;102335.22;;;1.54;62.42
16190;BME280;41754;51.498;7.540;2023-01-25T01:27:29;102333.97;;;1.97;61.63
16190;BME280;41754;51.498;7.540;2023-01-25T01:29:57;102337.47;;;1.43;62.63
16190;BME280;41754;51.498;7.540;2023-01-25T01:32:24;102332.34;;;1.62;62.70
16190;BME280;41754;51.498;7.540;2023-01-25T01:34:53;102339.59;;;1.55;62.53
16190;BME280;41754;51.498;7.540;2023-01-25T01:37:22;102335.13;;;1.75;62.20
16190;BME280;41754;51.498;7.540;2023-01-25T01:39:50;102335.16;;;1.88;61.99
16190;BME280;41754;51.498;7.540;2023-01-25T01:42:18;102332.03;;;1.91;61.91
16190;BME280;41754;51.498;7.540;2023-01-25T01:44:48;102337.00;;;1.81;62.13
16190;BME280;41754;51.498;7.540;2023-01-25T01:47:21;102335.84;;;1.56;62.79
16190;BME280;41754;51.498;7.540;2023-01-25T01:50:00;102339.06;;;1.31;63.38
16190;BME280;41754;51.498;7.540;2023-01-25T01:52:35;102336.25;;;1.53;63.09
16190;BME280;41754;51.498;7.540;2023-01-25T01:55:06;102335.97;;;1.76;62.58
16190;BME280;41754;51.498;7.540;2023-01-25T01:57:39;102333.03;;;1.77;62.40
16190;BME280;41754;51.498;7.540;2023-01-25T02:00:12;102332.56;;;1.67;62.47
16190;BME280;41754;51.498;7.540;2023-01-25T02:02:42;102327.81;;;1.34;62.65
16190;BME280;41754;51.498;7.540;2023-01-25T02:05:18;102324.53;;;1.46;63.63
16190;BME280;41754;51.498;7.540;2023-01-25T02:07:49;102331.88;;;1.52;62.93
16190;BME280;41754;51.498;7.540;2023-01-25T02:10:21;102328.47;;;1.84;63.15
16190;BME280;41754;51.498;7.540;2023-01-25T02:12:51;102321.75;;;1.74;62.78
16190;BME280;41754;51.498;7.540;2023-01-25T02:15:19;102326.34;;;1.73;62.93
16190;BME280;41754;51.498;7.540;2023-01-25T02:17:48;102331.47;;;1.55;63.27
16190;BME280;41754;51.498;7.540;2023-01-25T02:20:22;102323.66;;;1.38;64.04
16190;BME280;41754;51.498;7.540;2023-01-25T02:22:58;102329.09;;;1.38;64.24
16190;BME280;41754;51.498;7.540;2023-01-25T02:25:29;102326.66;;;1.57;64.55
16190;BME280;41754;51.498;7.540;2023-01-25T02:28:03;102325.81;;;1.50;63.55
16190;BME280;41754;51.498;7.540;2023-01-25T02:30:33;102321.69;;;1.60;63.30
16190;BME280;41754;51.498;7.540;2023-01-25T02:33:01;102329.16;;;1.52;63.82
16190;BME280;41754;51.498;7.540;2023-01-25T02:35:38;102325.25;;;1.61;63.95
16190;BME280;41754;51.498;7.540;2023-01-25T02:38:09;102331.88;;;1.52;64.04
16190;BME280;41754;51.498;7.540;2023-01-25T02:40:44;102335.75;;;1.77;62.87
16190;BME280;41754;51.498;7.540;2023-01-25T02:43:14;102334.75;;;1.91;61.99
16190;BME280;41754;51.498;7.540;2023-01-25T02:45:44;102338.09;;;1.93;62.77
16190;BME280;41754;51.498;7.540;2023-01-25T02:48:12;102333.00;;;1.70;62.08
16190;BME280;41754;51.498;7.540;2023-01-25T02:50:40;102327.63;;;1.36;64.09
16190;BME280;41754;51.498;7.540;2023-01-25T02:53:10;102323.09;;;1.50;63.87
16190;BME280;41754;51.498;7.540;2023-01-25T02:55:38;102316.63;;;1.51;63.99
16190;BME280;41754;51.498;7.540;2023-01-25T02:58:08;102321.38;;;1.35;64.55
16190;BME280;41754;51.498;7.540;2023-01-25T03:00:36;102324.69;;;1.72;63.76
16190;BME280;41754;51.498;7.540;2023-01-25T03:03:04;102322.13;;;1.64;63.43
16190;BME280;41754;51.498;7.540;2023-01-25T03:05:32;102328.13;;;1.18;64.30
16190;BME280;41754;51.498;7.540;2023-01-25T03:08:00;102326.28;;;0.91;65.71
16190;BME280;41754;51.498;7.540;2023-01-25T03:10:28;102316.16;;;1.06;66.12
16190;BME280;41754;51.498;7.540;2023-01-25T03:12:56;102314.06;;;0.73;67.05
16190;BME280;41754;51.498;7.540;2023-01-25T03:15:26;102312.19;;;0.74;67.61
16190;BME280;41754;51.498;7.540;2023-01-25T03:17:54;102310.75;;;1.40;65.97
16190;BME280;41754;51.498;7.540;2023-01-25T03:20:22;102311.56;;;1.34;65.49
16190;BME280;41754;51.498;7.540;2023-01-25T03:22:51;102304.53;;;1.53;64.92
16190;BME280;41754;51.498;7.540;2023-01-25T03:25:19;102301.28;;;1.30;65.38
16190;BME280;41754;51.498;7.540;2023-01-25T03:27:55;102299.94;;;1.47;65.51
16190;BME280;41754;51.498;7.540;2023-01-25T03:30:23;102305.22;;;1.62;65.64
16190;BME280;41754;51.498;7.540;2023-01-25T03:32:53;102299.34;;;1.58;64.93
16190;BME280;41754;51.498;7.540;2023-01-25T03:35:21;102294.56;;;1.60;64.92
16190;BME280;41754;51.498;7.540;2023-01-25T03:37:50;102297.13;;;1.75;64.40
16190;BME280;41754;51.498;7.540;2023-01-25T03:40:18;102285.81;;;1.65;64.09
16190;BME280;41754;51.498;7.540;2023-01-25T03:42:48;102277.81;;;1.50;64.79
16190;BME280;41754;51.498;7.540;2023-01-25T03:45:17;102274.22;;;1.36;64.86
16190;BME280;41754;51.498;7.540;2023-01-25T03:47:45;102274.41;;;1.35;65.13
16190;BME280;41754;51.498;7.540;2023-01-25T03:50:15;102275.16;;;1.63;65.00
16190;BME280;41754;51.498;7.540;2023-01-25T03:52:44;102263.16;;;1.45;65.44
16190;BME280;41754;51.498;7.540;2023-01-25T03:55:14;102255.28;;;1.56;64.52
16190;BME280;41754;51.498;7.540;2023-01-25T03:57:43;102249.25;;;1.54;64.99
16190;BME280;41754;51.498;7.540;2023-01-25T04:00:16;102246.91;;;1.45;65.20
16190;BME280;41754;51.498;7.540;2023-01-25T04:02:48;102248.19;;;1.49;65.21
16190;BME280;41754;51.498;7.540;2023-01-25T04:05:19;102247.81;;;1.65;64.77
16190;BME280;41754;51.498;7.540;2023-01-25T04:07:46;102237.25;;;1.29;65.23
16190;BME280;41754;51.498;7.540;2023-01-25T04:10:19;102237.28;;;1.35;65.54
16190;BME280;41754;51.498;7.540;2023-01-25T04:12:47;102245.72;;;1.60;65.42
16190;BME280;41754;51.498;7.540;2023-01-25T04:15:15;102239.09;;;1.76;64.71
16190;BME280;41754;51.498;7.540;2023-01-25T04:17:43;102233.03;;;1.81;63.88
16190;BME280;41754;51.498;7.540;2023-01-25T04:20:23;102237.31;;;1.01;65.84
16190;BME280;41754;51.498;7.540;2023-01-25T04:22:53;102238.41;;;1.61;65.61
16190;BME280;41754;51.498;7.540;2023-01-25T04:25:25;102229.28;;;1.75;65.24
16190;BME280;41754;51.498;7.540;2023-01-25T04:27:53;102225.94;;;1.73;64.66
16190;BME280;41754;51.498;7.540;2023-01-25T04:30:22;102222.63;;;1.30;64.92
16190;BME280;41754;51.498;7.540;2023-01-25T04:32:51;102221.09;;;1.68;65.46
16190;BME280;41754;51.498;7.540;2023-01-25T04:35:25;102222.28;;;1.39;65.48
16190;BME280;41754;51.498;7.540;2023-01-25T04:37:54;102215.97;;;1.26;65.74
16190;BME280;41754;51.498;7.540;2023-01-25T04:40:25;102210.91;;;1.16;67.42
16190;BME280;41754;51.498;7.540;2023-01-25T04:42:54;102206.72;;;1.20;66.55
16190;BME280;41754;51.498;7.540;2023-01-25T04:45:22;102213.75;;;1.49;66.75
16190;BME280;41754;51.498;7.540;2023-01-25T04:47:55;102211.38;;;1.26;65.97
16190;BME280;41754;51.498;7.540;2023-01-25T04:50:23;102206.66;;;1.55;65.96
16190;BME280;41754;51.498;7.540;2023-01-25T04:52:53;102208.88;;;1.31;66.69
16190;BME280;41754;51.498;7.540;2023-01-25T04:55:22;102206.94;;;1.12;67.23
16190;BME280;41754;51.498;7.540;2023-01-25T04:57:52;102202.44;;;0.91;67.59
16190;BME280;41754;51.498;7.540;2023-01-25T05:00:21;102208.59;;;0.78;68.81
16190;BME280;41754;51.498;7.540;2023-01-25T05:02:49;102200.34;;;0.87;68.25
16190;BME280;41754;51.498;7.540;2023-01-25T05:05:17;102200.47;;;1.13;69.21
16190;BME280;41754;51.498;7.540;2023-01-25T05:07:46;102199.69;;;1.32;67.59
16190;BME280;41754;51.498;7.540;2023-01-25T05:10:15;102198.75;;;1.05;69.07
16190;BME280;41754;51.498;7.540;2023-01-25T05:13:03;102203.50;;;1.45;67.03
16190;BME280;41754;51.498;7.540;2023-01-25T05:15:31;102196.81;;;1.40;67.27
16190;BME280;41754;51.498;7.540;2023-01-25T05:18:01;102200.84;;;1.64;65.81
16190;BME280;41754;51.498;7.540;2023-01-25T05:20:29;102198.91;;;1.45;66.16
16190;BME280;41754;51.498;7.540;2023-01-25T05:22:57;102198.78;;;1.73;65.50
16190;BME280;41754;51.498;7.540;2023-01-25T05:25:28;102197.75;;;1.74;65.55
16190;BME280;41754;51.498;7.540;2023-01-25T05:28:16;102194.53;;;1.44;66.27
16190;BME280;41754;51.498;7.540;2023-01-25T05:31:02;102203.81;;;1.15;66.54
16190;BME280;41754;51.498;7.540;2023-01-25T05:33:32;102208.88;;;1.25;68.09
16190;BME280;41754;51.498;7.540;2023-01-25T05:36:00;102199.69;;;1.26;67.67
16190;BME280;41754;51.498;7.540;2023-01-25T05:38:32;102204.16;;;1.05;68.34
16190;BME280;41754;51.498;7.540;2023-01-25T05:41:01;102202.69;;;1.03;69.38
16190;BME280;41754;51.498;7.540;2023-01-25T05:43:29;102211.84;;;1.43;68.18
16190;BME280;41754;51.498;7.540;2023-01-25T05:45:57;102208.03;;;1.31;67.82
16190;BME280;41754;51.498;7.540;2023-01-25T05:48:26;102198.22;;;1.30;68.27
16190;BME280;41754;51.498;7.540;2023-01-25T05:50:56;102201.38;;;1.33;68.37
16190;BME280;41754;51.498;7.540;2023-01-25T05:53:24;102196.66;;;1.07;68.58
16190;BME280;41754;51.498;7.540;2023-01-25T05:55:52;102197.97;;;1.18;69.19
16190;BME280;41754;51.498;7.540;2023-01-25T05:58:22;102200.16;;;1.36;68.34
16190;BME280;41754;51.498;7.540;2023-01-25T06:00:50;102197.88;;;1.46;67.69
16190;BME280;41754;51.498;7.540;2023-01-25T06:03:29;102201.50;;;1.12;68.21
16190;BME280;41754;51.498;7.540;2023-01-25T06:05:59;102196.59;;;1.35;68.19
16190;BME280;41754;51.498;7.540;2023-01-25T06:08:30;102198.91;;;1.38;67.22
16190;BME280;41754;51.498;7.540;2023-01-25T06:10:58;102194.16;;;1.06;68.33
16190;BME280;41754;51.498;7.540;2023-01-25T06:13:27;102194.22;;;1.12;68.47
16190;BME280;41754;51.498;7.540;2023-01-25T06:15:56;102201.38;;;1.33;68.29
16190;BME280;41754;51.498;7.540;2023-01-25T06:19:03;102190.88;;;1.17;69.11
16190;BME280;41754;51.498;7.540;2023-01-25T06:21:54;102188.31;;;1.09;69.21
16190;BME280;41754;51.498;7.540;2023-01-25T06:24:22;102190.69;;;1.19;69.04
16190;BME280;41754;51.498;7.540;2023-01-25T06:26:50;102183.50;;;0.98;70.43
16190;BME280;41754;51.498;7.540;2023-01-25T06:29:19;102197.69;;;1.00;69.82
16190;BME280;41754;51.498;7.540;2023-01-25T06:31:47;102188.41;;;1.22;68.85
16190;BME280;41754;51.498;7.540;2023-01-25T06:34:15;102188.09;;;1.52;67.79
16190;BME280;41754;51.498;7.540;2023-01-25T06:36:42;102192.75;;;1.10;69.08
16190;BME280;41754;51.498;7.540;2023-01-25T06:39:10;102193.44;;;0.56;69.64
16190;BME280;41754;51.498;7.540;2023-01-25T06:41:38;102198.44;;;1.22;68.29
16190;BME280;41754;51.498;7.540;2023-01-25T06:44:07;102198.16;;;1.10;68.71
16190;BME280;41754;51.498;7.540;2023-01-25T06:46:36;102204.44;;;1.78;66.86
16190;BME280;41754;51.498;7.540;2023-01-25T06:49:04;102203.06;;;1.34;66.76
16190;BME280;41754;51.498;7.540;2023-01-25T06:51:32;102199.94;;;1.37;67.11
16190;BME280;41754;51.498;7.540;2023-01-25T06:54:01;102186.91;;;1.20;68.21
16190;BME280;41754;51.498;7.540;2023-01-25T06:56:30;102196.97;;;1.32;67.60
16190;BME280;41754;51.498;7.540;2023-01-25T06:58:58;102199.28;;;1.29;66.85
16190;BME280;41754;51.498;7.540;2023-01-25T07:01:26;102202.28;;;0.37;68.80
16190;BME280;41754;51.498;7.540;2023-01-25T07:03:57;102197.72;;;1.06;69.14
16190;BME280;41754;51.498;7.540;2023-01-25T07:06:30;102189.88;;;0.83;69.26
16190;BME280;41754;51.498;7.540;2023-01-25T07:09:02;102191.66;;;1.04;69.22
16190;BME280;41754;51.498;7.540;2023-01-25T07:11:30;102202.03;;;1.35;68.01
16190;BME280;41754;51.498;7.540;2023-01-25T07:13:58;102197.41;;;1.29;67.12
16190;BME280;41754;51.498;7.540;2023-01-25T07:16:26;102205.44;;;-0.45;72.28
16190;BME280;41754;51.498;7.540;2023-01-25T07:18:53;102204.53;;;0.96;72.23
16190;BME280;41754;51.498;7.540;2023-01-25T07:21:23;102189.56;;;1.00;69.96
16190;BME280;41754;51.498;7.540;2023-01-25T07:23:51;102197.94;;;-0.07;72.41
16190;BME280;41754;51.498;7.540;2023-01-25T07:26:21;102192.84;;;0.89;72.46
16190;BME280;41754;51.498;7.540;2023-01-25T07:28:49;102189.50;;;0.93;70.18
16190;BME280;41754;51.498;7.540;2023-01-25T07:31:19;102182.47;;;1.05;69.20
16190;BME280;41754;51.498;7.540;2023-01-25T07:33:47;102191.56;;;1.32;68.12
16190;BME280;41754;51.498;7.540;2023-01-25T07:36:16;102188.03;;;0.91;68.71
16190;BME280;41754;51.498;7.540;2023-01-25T07:38:45;102179.63;;;1.20;68.99
16190;BME280;41754;51.498;7.540;2023-01-25T07:41:13;102181.38;;;1.34;68.67
16190;BME280;41754;51.498;7.540;2023-01-25T07:43:41;102184.47;;;-0.22;71.29
16190;BME280;41754;51.498;7.540;2023-01-25T07:46:11;102177.47;;;1.09;69.98
16190;BME280;41754;51.498;7.540;2023-01-25T07:48:43;102176.81;;;1.55;68.37
16190;BME280;41754;51.498;7.540;2023-01-25T07:51:12;102179.91;;;-0.21;71.27
16190;BME280;41754;51.498;7.540;2023-01-25T07:53:51;102179.25;;;-0.45;75.10
16190;BME280;41754;51.498;7.540;2023-01-25T07:56:21;102175.63;;;0.68;73.88
16190;BME280;41754;51.498;7.540;2023-01-25T07:58:51;102178.56;;;-0.68;75.99
16190;BME280;41754;51.498;7.540;2023-01-25T08:01:20;102178.41;;;1.29;77.50
16190;BME280;41754;51.498;7.540;2023-01-25T08:03:49;102187.38;;;-0.23;77.47
16190;BME280;41754;51.498;7.540;2023-01-25T08:06:22;102184.94;;;-0.18;77.65
16190;BME280;41754;51.498;7.540;2023-01-25T08:08:54;102186.19;;;-0.57;78.78
16190;BME280;41754;51.498;7.540;2023-01-25T08:11:24;102187.78;;;-0.26;78.92
16190;BME280;41754;51.498;7.540;2023-01-25T08:13:52;102191.28;;;-0.47;79.38
16190;BME280;41754;51.498;7.540;2023-01-25T08:16:23;102183.22;;;-0.62;79.97
16190;BME280;41754;51.498;7.540;2023-01-25T08:18:52;102188.53;;;-0.11;80.71
16190;BME280;41754;51.498;7.540;2023-01-25T08:21:20;102179.34;;;-0.53;79.17
16190;BME280;41754;51.498;7.540;2023-01-25T08:23:49;102174.81;;;-0.31;79.76
16190;BME280;41754;51.498;7.540;2023-01-25T08:26:19;102174.88;;;-0.24;79.34
16190;BME280;41754;51.498;7.540;2023-01-25T08:28:47;102173.13;;;-0.32;79.80
16190;BME280;41754;51.498;7.540;2023-01-25T08:31:17;102173.41;;;-0.27;79.72
16190;BME280;41754;51.498;7.540;2023-01-25T08:33:46;102168.16;;;-0.28;79.17
16190;BME280;41754;51.498;7.540;2023-01-25T08:36:15;102160.94;;;1.45;74.21
16190;BME280;41754;51.498;7.540;2023-01-25T08:38:44;102162.25;;;1.62;70.96
16190;BME280;41754;51.498;7.540;2023-01-25T08:41:14;102154.44;;;-0.06;73.01
16190;BME280;41754;51.498;7.540;2023-01-25T08:43:44;102160.19;;;1.97;70.16
16190;BME280;41754;51.498;7.540;2023-01-25T08:46:14;102153.50;;;2.20;67.35
16190;BME280;41754;51.498;7.540;2023-01-25T08:48:42;102148.28;;;2.25;64.85
16190;BME280;41754;51.498;7.540;2023-01-25T08:51:11;102141.78;;;2.39;65.21
16190;BME280;41754;51.498;7.540;2023-01-25T08:53:40;102152.25;;;1.76;66.37
16190;BME280;41754;51.498;7.540;2023-01-25T08:56:09;102157.53;;;0.41;72.34
16190;BME280;41754;51.498;7.540;2023-01-25T08:58:39;102158.66;;;0.88;72.16
16190;BME280;41754;51.498;7.540;2023-01-25T09:01:10;102147.69;;;1.16;71.12
16190;BME280;41754;51.498;7.540;2023-01-25T09:03:40;102153.38;;;-0.32;74.17
16190;BME280;41754;51.498;7.540;2023-01-25T09:06:09;102158.94;;;0.71;75.52
16190;BME280;41754;51.498;7.540;2023-01-25T09:08:38;102144.06;;;2.42;71.42
16190;BME280;41754;51.498;7.540;2023-01-25T09:11:08;102126.22;;;2.86;65.21
16190;BME280;41754;51.498;7.540;2023-01-25T09:13:36;102122.84;;;2.97;64.42
16190;BME280;41754;51.498;7.540;2023-01-25T09:16:06;102118.13;;;3.17;61.18
16190;BME280;41754;51.498;7.540;2023-01-25T09:18:37;102116.16;;;2.86;62.25
16190;BME280;41754;51.498;7.540;2023-01-25T09:21:07;102116.13;;;3.00;62.10
16190;BME280;41754;51.498;7.540;2023-01-25T09:23:35;102107.53;;;3.03;62.75
16190;BME280;41754;51.498;7.540;2023-01-25T09:26:17;102099.28;;;3.23;60.88
16190;BME280;41754;51.498;7.540;2023-01-25T09:28:46;102104.75;;;2.58;62.11
16190;BME280;41754;51.498;7.540;2023-01-25T09:31:15;102092.44;;;3.07;61.58
16190;BME280;41754;51.498;7.540;2023-01-25T09:34:10;102097.97;;;3.32;60.54
16190;BME280;41754;51.498;7.540;2023-01-25T09:36:38;102105.78;;;2.57;61.61
16190;BME280;41754;51.498;7.540;2023-01-25T09:39:08;102100.78;;;2.60;62.43
16190;BME280;41754;51.498;7.540;2023-01-25T09:45:01;102098.06;;;2.60;62.08
16190;BME280;41754;51.498;7.540;2023-01-25T09:47:37;102099.47;;;2.83;62.61
16190;BME280;41754;51.498;7.540;2023-01-25T09:50:24;102093.69;;;2.59;62.49
16190;BME280;41754;51.498;7.540;2023-01-25T09:53:24;102086.19;;;2.48;62.64
16190;BME280;41754;51.498;7.540;2023-01-25T09:55:57;102082.69;;;2.93;61.59
16190;BME280;41754;51.498;7.540;2023-01-25T09:58:30;102087.16;;;3.18;60.82
16190;BME280;41754;51.498;7.540;2023-01-25T10:01:20;102084.56;;;2.99;60.55
16190;BME280;41754;51.498;7.540;2023-01-25T10:04:09;102084.00;;;4.10;58.87
16190;BME280;41754;51.498;7.540;2023-01-25T10:06:42;102074.03;;;3.47;58.70
16190;BME280;41754;51.498;7.540;2023-01-25T10:09:33;102076.13;;;3.45;59.96
16190;BME280;41754;51.498;7.540;2023-01-25T10:12:13;102069.53;;;3.28;59.70
16190;BME280;41754;51.498;7.540;2023-01-25T10:14:42;102069.59;;;3.77;57.77
16190;BME280;41754;51.498;7.540;2023-01-25T10:17:13;102075.38;;;3.88;57.89
16190;BME280;41754;51.498;7.540;2023-01-25T10:20:08;102070.56;;;2.82;60.52
16190;BME280;41754;51.498;7.540;2023-01-25T10:22:45;102075.13;;;3.01;61.26
16190;BME280;41754;51.498;7.540;2023-01-25T10:25:35;102065.91;;;3.02;60.52
16190;BME280;41754;51.498;7.540;2023-01-25T10:28:17;102065.16;;;3.58;59.29
16190;BME280;41754;51.498;7.540;2023-01-25T10:30:54;102066.66;;;3.23;59.43
16190;BME280;41754;51.498;7.540;2023-01-25T10:33:25;102060.53;;;2.82;60.63
16190;BME280;41754;51.498;7.540;2023-01-25T10:35:55;102055.66;;;3.04;60.82
16190;BME280;41754;51.498;7.540;2023-01-25T10:38:30;102055.22;;;3.07;60.76
16190;BME280;41754;51.498;7.540;2023-01-25T10:41:03;102065.00;;;3.22;60.79
16190;BME280;41754;51.498;7.540;2023-01-25T10:43:33;102051.28;;;3.03;60.63
16190;BME280;41754;51.498;7.540;2023-01-25T10:46:01;102038.53;;;3.85;58.81
16190;BME280;41754;51.498;7.540;2023-01-25T10:48:32;102032.50;;;3.58;58.61
16190;BME280;41754;51.498;7.540;2023-01-25T10:51:01;102031.56;;;3.71;59.21
16190;BME280;41754;51.498;7.540;2023-01-25T10:53:35;102028.28;;;3.31;59.39
16190;BME280;41754;51.498;7.540;2023-01-25T10:56:18;102026.72;;;3.16;60.86
16190;BME280;41754;51.498;7.540;2023-01-25T10:58:49;102025.91;;;3.41;60.21
16190;BME280;41754;51.498;7.540;2023-01-25T11:01:25;102028.63;;;3.91;58.85
16190;BME280;41754;51.498;7.540;2023-01-25T11:03:53;102016.66;;;3.73;58.86
16190;BME280;41754;51.498;7.540;2023-01-25T11:06:29;102013.75;;;3.43;59.16
16190;BME280;41754;51.498;7.540;2023-01-25T11:08:59;102011.69;;;3.39;59.94
16190;BME280;41754;51.498;7.540;2023-01-25T11:11:33;102007.66;;;3.16;60.63
16190;BME280;41754;51.498;7.540;2023-01-25T11:14:02;102004.44;;;3.58;59.90
16190;BME280;41754;51.498;7.540;2023-01-25T11:16:44;102010.59;;;3.71;58.61
16190;BME280;41754;51.498;7.540;2023-01-25T11:19:29;101999.00;;;3.58;58.96
16190;BME280;41754;51.498;7.540;2023-01-25T11:21:59;101994.81;;;3.55;59.06
16190;BME280;41754;51.498;7.540;2023-01-25T11:24:30;101991.69;;;2.95;60.37
16190;BME280;41754;51.498;7.540;2023-01-25T11:27:13;101985.44;;;3.51;59.74
16190;BME280;41754;51.498;7.540;2023-01-25T11:29:43;101982.72;;;2.88;59.56
16190;BME280;41754;51.498;7.540;2023-01-25T11:32:18;101976.06;;;3.22;59.92
16190;BME280;41754;51.498;7.540;2023-01-25T11:34:48;101974.66;;;3.13;59.47
16190;BME280;41754;51.498;7.540;2023-01-25T11:37:27;101964.59;;;3.13;59.87
16190;BME280;41754;51.498;7.540;2023-01-25T11:40:10;101962.00;;;3.25;59.14
16190;BME280;41754;51.498;7.540;2023-01-25T11:42:47;101955.63;;;3.38;59.12
16190;BME280;41754;51.498;7.540;2023-01-25T11:45:54;101938.16;;;3.70;57.99
16190;BME280;41754;51.498;7.540;2023-01-25T11:48:36;101936.66;;;0.99;65.96
16190;BME280;41754;51.498;7.540;2023-01-25T11:51:12;101946.38;;;0.61;68.57
16190;BME280;41754;51.498;7.540;2023-01-25T11:53:51;101913.00;;;3.50;61.45
16190;BME280;41754;51.498;7.540;2023-01-25T11:56:32;101916.47;;;3.39;59.29
16190;BME280;41754;51.498;7.540;2023-01-25T11:59:18;101909.34;;;3.38;60.03
16190;BME280;41754;51.498;7.540;2023-01-25T12:02:00;101902.50;;;3.10;59.60
16190;BME280;41754;51.498;7.540;2023-01-25T12:04:55;101906.25;;;2.78;60.46
16190;BME280;41754;51.498;7.540;2023-01-25T12:07:50;101908.50;;;1.00;65.67
16190;BME280;41754;51.498;7.540;2023-01-25T12:10:32;101899.28;;;1.21;66.88
16190;BME280;41754;51.498;7.540;2023-01-25T12:13:07;101890.97;;;0.76;69.80
16190;BME280;41754;51.498;7.540;2023-01-25T12:16:00;101875.69;;;2.82;63.95
16190;BME280;41754;51.498;7.540;2023-01-25T12:18:47;101868.38;;;1.55;62.59
16190;BME280;41754;51.498;7.540;2023-01-25T12:21:23;101872.19;;;0.81;68.47
16190;BME280;41754;51.498;7.540;2023-01-25T12:24:09;101876.19;;;-0.02;72.25
16190;BME280;41754;51.498;7.540;2023-01-25T12:26:45;101870.53;;;1.27;70.38
16190;BME280;41754;51.498;7.540;2023-01-25T12:29:23;101852.25;;;2.25;65.47
16190;BME280;41754;51.498;7.540;2023-01-25T12:31:57;101843.97;;;1.62;65.13
16190;BME280;41754;51.498;7.540;2023-01-25T12:34:32;101841.81;;;1.77;65.87
16190;BME280;41754;51.498;7.540;2023-01-25T12:37:05;101833.00;;;1.88;65.80
16190;BME280;41754;51.498;7.540;2023-01-25T12:39:39;101833.03;;;0.64;69.81
16190;BME280;41754;51.498;7.540;2023-01-25T12:42:14;101829.88;;;0.47;71.27
16190;BME280;41754;51.498;7.540;2023-01-25T12:44:48;101830.06;;;0.46;72.24
16190;BME280;41754;51.498;7.540;2023-01-25T12:47:20;101823.41;;;0.42;72.82
16190;BME280;41754;51.498;7.540;2023-01-25T12:49:53;101811.97;;;0.93;69.88
16190;BME280;41754;51.498;7.540;2023-01-25T12:52:28;101810.47;;;0.31;70.90
16190;BME280;41754;51.498;7.540;2023-01-25T12:55:00;101798.44;;;0.66;71.23
16190;BME280;41754;51.498;7.540;2023-01-25T12:57:34;101793.25;;;1.56;70.72
16190;BME280;41754;51.498;7.540;2023-01-25T13:00:14;101782.38;;;0.98;68.24
16190;BME280;41754;51.498;7.540;2023-01-25T13:03:15;101758.72;;;3.51;61.66
16190;BME280;41754;51.498;7.540;2023-01-25T13:05:52;101747.00;;;3.50;59.98
16190;BME280;41754;51.498;7.540;2023-01-25T13:08:33;101740.47;;;3.99;57.25
16190;BME280;41754;51.498;7.540;2023-01-25T13:11:11;101737.84;;;3.44;58.69
16190;BME280;41754;51.498;7.540;2023-01-25T13:13:40;101738.81;;;3.68;58.40
16190;BME280;41754;51.498;7.540;2023-01-25T13:16:34;101730.88;;;3.67;59.01
16190;BME280;41754;51.498;7.540;2023-01-25T13:19:03;101724.19;;;3.81;56.55
16190;BME280;41754;51.498;7.540;2023-01-25T13:21:39;101714.00;;;2.17;59.41
16190;BME280;41754;51.498;7.540;2023-01-25T13:24:16;101722.53;;;0.93;64.90
16190;BME280;41754;51.498;7.540;2023-01-25T13:26:59;101733.44;;;0.27;68.81
16190;BME280;41754;51.498;7.540;2023-01-25T13:29:58;101728.56;;;0.95;68.54